Mullins Prairie, Texas
Current Conditions -  °F | °C
As of 3:50 PM on Monday 22 Dec 2014 (Local Time) from K3T5 Reporting Station
Clear Clear  
Wind Chill: 69°   Ceiling: Unl
Heat Index: 69°   Visibility: 10mi
Dew Point: 58°   Wind: 0mph
Humidity: 68%   Direction: NA
Pressure: 29.61"   Gusts: NA
Location:  29.8569°N, 96.9311°W
Report Text: K3T5 222150Z AUTO 00000KT 10SM CLR 21/15 A2961 RMK AO2 T02080146
Loading
Personal Weather Stations






























Interactive Weather Map New forecast layout! Learn more

10-Day Weather Forecast

Advertisements
Track Severe Weather on mobile